sensor_id;sensor_type;location;lat;lon;timestamp;temperature;humidity
67529;DHT22;54366;51.980;5.856;2022-09-23T00:00:42;12.60;69.10
67529;DHT22;54366;51.980;5.856;2022-09-23T00:03:09;12.60;69.30
67529;DHT22;54366;51.980;5.856;2022-09-23T00:05:36;12.60;69.20
67529;DHT22;54366;51.980;5.856;2022-09-23T00:08:06;12.60;69.30
67529;DHT22;54366;51.980;5.856;2022-09-23T00:10:36;12.50;69.50
67529;DHT22;54366;51.980;5.856;2022-09-23T00:13:03;12.50;69.40
67529;DHT22;54366;51.980;5.856;2022-09-23T00:15:29;12.50;69.50
67529;DHT22;54366;51.980;5.856;2022-09-23T00:17:56;12.50;69.30
67529;DHT22;54366;51.980;5.856;2022-09-23T00:20:23;12.40;69.30
67529;DHT22;54366;51.980;5.856;2022-09-23T00:22:49;12.50;69.50
67529;DHT22;54366;51.980;5.856;2022-09-23T00:25:15;12.40;69.40
67529;DHT22;54366;51.980;5.856;2022-09-23T00:27:41;12.40;69.00
67529;DHT22;54366;51.980;5.856;2022-09-23T00:30:09;12.40;69.60
67529;DHT22;54366;51.980;5.856;2022-09-23T00:32:35;12.40;69.60
67529;DHT22;54366;51.980;5.856;2022-09-23T00:35:03;12.30;69.70
67529;DHT22;54366;51.980;5.856;2022-09-23T00:37:30;12.30;69.40
67529;DHT22;54366;51.980;5.856;2022-09-23T00:39:56;12.30;69.70
67529;DHT22;54366;51.980;5.856;2022-09-23T00:42:23;12.30;69.60
67529;DHT22;54366;51.980;5.856;2022-09-23T00:44:52;12.30;69.40
67529;DHT22;54366;51.980;5.856;2022-09-23T00:47:33;12.30;70.00
67529;DHT22;54366;51.980;5.856;2022-09-23T00:52:38;12.20;70.30
67529;DHT22;54366;51.980;5.856;2022-09-23T00:55:09;12.20;70.10
67529;DHT22;54366;51.980;5.856;2022-09-23T00:57:37;12.20;70.20
67529;DHT22;54366;51.980;5.856;2022-09-23T01:00:07;12.20;70.40
67529;DHT22;54366;51.980;5.856;2022-09-23T01:02:33;12.20;70.40
67529;DHT22;54366;51.980;5.856;2022-09-23T01:05:01;12.20;70.40
67529;DHT22;54366;51.980;5.856;2022-09-23T01:07:28;12.20;70.00
67529;DHT22;54366;51.980;5.856;2022-09-23T01:09:55;12.10;70.20
67529;DHT22;54366;51.980;5.856;2022-09-23T01:12:57;12.10;70.20
67529;DHT22;54366;51.980;5.856;2022-09-23T01:18:26;12.10;70.60
67529;DHT22;54366;51.980;5.856;2022-09-23T01:21:16;12.10;70.80
67529;DHT22;54366;51.980;5.856;2022-09-23T01:26:46;12.10;70.70
67529;DHT22;54366;51.980;5.856;2022-09-23T01:32:02;12.10;70.80
67529;DHT22;54366;51.980;5.856;2022-09-23T01:34:46;12.00;70.80
67529;DHT22;54366;51.980;5.856;2022-09-23T01:37:44;12.00;70.80
67529;DHT22;54366;51.980;5.856;2022-09-23T01:40:56;12.00;70.90
67529;DHT22;54366;51.980;5.856;2022-09-23T01:46:36;12.00;71.50
67529;DHT22;54366;51.980;5.856;2022-09-23T01:49:10;12.00;71.60
67529;DHT22;54366;51.980;5.856;2022-09-23T01:51:45;11.90;71.60
67529;DHT22;54366;51.980;5.856;2022-09-23T01:54:38;11.90;71.70
67529;DHT22;54366;51.980;5.856;2022-09-23T01:57:14;11.90;72.00
67529;DHT22;54366;51.980;5.856;2022-09-23T01:59:49;11.90;71.50
67529;DHT22;54366;51.980;5.856;2022-09-23T02:02:30;11.90;71.60
67529;DHT22;54366;51.980;5.856;2022-09-23T02:05:06;11.80;71.90
67529;DHT22;54366;51.980;5.856;2022-09-23T02:12:46;11.70;72.00
67529;DHT22;54366;51.980;5.856;2022-09-23T02:15:18;11.70;72.00
67529;DHT22;54366;51.980;5.856;2022-09-23T02:17:51;11.70;72.10
67529;DHT22;54366;51.980;5.856;2022-09-23T02:20:21;11.60;72.60
67529;DHT22;54366;51.980;5.856;2022-09-23T02:23:02;11.60;72.30
67529;DHT22;54366;51.980;5.856;2022-09-23T02:26:03;11.70;72.00
67529;DHT22;54366;51.980;5.856;2022-09-23T02:28:54;11.60;71.80
67529;DHT22;54366;51.980;5.856;2022-09-23T02:31:44;11.60;72.00
67529;DHT22;54366;51.980;5.856;2022-09-23T02:37:13;11.50;72.60
67529;DHT22;54366;51.980;5.856;2022-09-23T02:40:18;11.50;72.70
67529;DHT22;54366;51.980;5.856;2022-09-23T02:43:09;11.50;73.00
67529;DHT22;54366;51.980;5.856;2022-09-23T02:45:37;11.50;73.10
67529;DHT22;54366;51.980;5.856;2022-09-23T02:48:08;11.50;73.40
67529;DHT22;54366;51.980;5.856;2022-09-23T02:50:36;11.50;73.40
67529;DHT22;54366;51.980;5.856;2022-09-23T02:53:04;11.50;73.40
67529;DHT22;54366;51.980;5.856;2022-09-23T02:55:31;11.50;73.10
67529;DHT22;54366;51.980;5.856;2022-09-23T02:58:02;11.50;73.30
67529;DHT22;54366;51.980;5.856;2022-09-23T03:00:41;11.50;73.30
67529;DHT22;54366;51.980;5.856;2022-09-23T03:05:41;11.50;73.30
67529;DHT22;54366;51.980;5.856;2022-09-23T03:11:10;11.50;73.50
67529;DHT22;54366;51.980;5.856;2022-09-23T03:13:43;11.70;73.70
67529;DHT22;54366;51.980;5.856;2022-09-23T03:19:36;11.50;73.70
67529;DHT22;54366;51.980;5.856;2022-09-23T03:22:27;11.50;74.50
67529;DHT22;54366;51.980;5.856;2022-09-23T03:25:00;11.50;73.80
67529;DHT22;54366;51.980;5.856;2022-09-23T03:27:29;11.50;73.60
67529;DHT22;54366;51.980;5.856;2022-09-23T03:29:58;11.50;73.70
67529;DHT22;54366;51.980;5.856;2022-09-23T03:32:26;11.50;73.80
67529;DHT22;54366;51.980;5.856;2022-09-23T03:34:55;11.50;73.80
67529;DHT22;54366;51.980;5.856;2022-09-23T03:37:26;11.40;74.00
67529;DHT22;54366;51.980;5.856;2022-09-23T03:40:03;11.40;73.90
67529;DHT22;54366;51.980;5.856;2022-09-23T03:42:33;11.40;74.10
67529;DHT22;54366;51.980;5.856;2022-09-23T03:45:04;11.40;74.20
67529;DHT22;54366;51.980;5.856;2022-09-23T03:47:33;11.40;74.20
67529;DHT22;54366;51.980;5.856;2022-09-23T03:50:00;11.30;74.20
67529;DHT22;54366;51.980;5.856;2022-09-23T03:52:26;11.40;74.30
67529;DHT22;54366;51.980;5.856;2022-09-23T03:54:53;11.30;74.10
67529;DHT22;54366;51.980;5.856;2022-09-23T03:57:20;11.30;74.40
67529;DHT22;54366;51.980;5.856;2022-09-23T03:59:49;11.30;74.40
67529;DHT22;54366;51.980;5.856;2022-09-23T04:02:16;11.30;74.50
67529;DHT22;54366;51.980;5.856;2022-09-23T04:04:43;11.30;74.60
67529;DHT22;54366;51.980;5.856;2022-09-23T04:07:10;11.30;74.60
67529;DHT22;54366;51.980;5.856;2022-09-23T04:09:37;11.20;74.50
67529;DHT22;54366;51.980;5.856;2022-09-23T04:12:04;11.20;74.70
67529;DHT22;54366;51.980;5.856;2022-09-23T04:14:30;11.20;74.90
67529;DHT22;54366;51.980;5.856;2022-09-23T04:16:56;11.20;74.80
67529;DHT22;54366;51.980;5.856;2022-09-23T04:19:23;11.20;74.80
67529;DHT22;54366;51.980;5.856;2022-09-23T04:21:49;11.20;75.00
67529;DHT22;54366;51.980;5.856;2022-09-23T04:24:15;11.20;75.10
67529;DHT22;54366;51.980;5.856;2022-09-23T04:26:42;11.20;75.10
67529;DHT22;54366;51.980;5.856;2022-09-23T04:29:09;11.20;75.30
67529;DHT22;54366;51.980;5.856;2022-09-23T04:31:36;11.20;75.80
67529;DHT22;54366;51.980;5.856;2022-09-23T04:34:02;11.20;75.60
67529;DHT22;54366;51.980;5.856;2022-09-23T04:36:28;11.20;75.30
67529;DHT22;54366;51.980;5.856;2022-09-23T04:38:55;11.20;75.50
67529;DHT22;54366;51.980;5.856;2022-09-23T04:41:21;11.20;75.60
67529;DHT22;54366;51.980;5.856;2022-09-23T04:43:48;11.20;75.50
67529;DHT22;54366;51.980;5.856;2022-09-23T04:46:15;11.20;75.60
67529;DHT22;54366;51.980;5.856;2022-09-23T04:48:41;11.30;75.60
67529;DHT22;54366;51.980;5.856;2022-09-23T04:51:16;11.30;75.60
67529;DHT22;54366;51.980;5.856;2022-09-23T04:53:44;11.30;75.60
67529;DHT22;54366;51.980;5.856;2022-09-23T04:56:19;11.30;75.80
67529;DHT22;54366;51.980;5.856;2022-09-23T04:58:46;11.30;75.90
67529;DHT22;54366;51.980;5.856;2022-09-23T05:01:15;11.30;75.90
67529;DHT22;54366;51.980;5.856;2022-09-23T05:03:43;11.30;75.90
67529;DHT22;54366;51.980;5.856;2022-09-23T05:06:11;11.30;76.00
67529;DHT22;54366;51.980;5.856;2022-09-23T05:08:46;11.40;76.00
67529;DHT22;54366;51.980;5.856;2022-09-23T05:11:12;11.40;76.10
67529;DHT22;54366;51.980;5.856;2022-09-23T05:13:38;11.40;76.10
67529;DHT22;54366;51.980;5.856;2022-09-23T05:16:08;11.40;76.00
67529;DHT22;54366;51.980;5.856;2022-09-23T05:18:35;11.40;75.50
67529;DHT22;54366;51.980;5.856;2022-09-23T05:21:02;11.40;75.70
67529;DHT22;54366;51.980;5.856;2022-09-23T05:23:28;11.50;75.80
67529;DHT22;54366;51.980;5.856;2022-09-23T05:25:57;11.50;75.70
67529;DHT22;54366;51.980;5.856;2022-09-23T05:28:25;11.40;75.70
67529;DHT22;54366;51.980;5.856;2022-09-23T05:30:53;11.50;75.80
67529;DHT22;54366;51.980;5.856;2022-09-23T05:33:19;11.50;75.70
67529;DHT22;54366;51.980;5.856;2022-09-23T05:35:46;11.50;75.80
67529;DHT22;54366;51.980;5.856;2022-09-23T05:38:14;11.50;75.80
67529;DHT22;54366;51.980;5.856;2022-09-23T05:40:42;11.50;75.80
67529;DHT22;54366;51.980;5.856;2022-09-23T05:43:08;11.50;75.80
67529;DHT22;54366;51.980;5.856;2022-09-23T05:45:35;11.60;75.90
67529;DHT22;54366;51.980;5.856;2022-09-23T05:48:01;11.60;75.90
67529;DHT22;54366;51.980;5.856;2022-09-23T05:50:27;11.60;75.90
67529;DHT22;54366;51.980;5.856;2022-09-23T05:52:53;11.60;76.00
67529;DHT22;54366;51.980;5.856;2022-09-23T05:55:19;11.60;76.00
67529;DHT22;54366;51.980;5.856;2022-09-23T05:57:46;11.60;76.60
67529;DHT22;54366;51.980;5.856;2022-09-23T06:00:12;11.70;76.10
67529;DHT22;54366;51.980;5.856;2022-09-23T06:02:38;11.60;76.00
67529;DHT22;54366;51.980;5.856;2022-09-23T06:05:05;11.60;76.00
67529;DHT22;54366;51.980;5.856;2022-09-23T06:07:31;11.70;76.00
67529;DHT22;54366;51.980;5.856;2022-09-23T06:09:57;11.70;76.20
67529;DHT22;54366;51.980;5.856;2022-09-23T06:12:23;11.70;75.90
67529;DHT22;54366;51.980;5.856;2022-09-23T06:14:50;11.80;75.90
67529;DHT22;54366;51.980;5.856;2022-09-23T06:17:17;11.90;76.10
67529;DHT22;54366;51.980;5.856;2022-09-23T06:19:44;11.80;75.90
67529;DHT22;54366;51.980;5.856;2022-09-23T06:22:10;11.90;75.90
67529;DHT22;54366;51.980;5.856;2022-09-23T06:24:36;11.90;76.00
67529;DHT22;54366;51.980;5.856;2022-09-23T06:27:02;11.90;76.00
67529;DHT22;54366;51.980;5.856;2022-09-23T06:29:29;12.00;76.00
67529;DHT22;54366;51.980;5.856;2022-09-23T06:31:58;12.00;75.90
67529;DHT22;54366;51.980;5.856;2022-09-23T06:34:24;12.00;75.90
67529;DHT22;54366;51.980;5.856;2022-09-23T06:36:50;12.10;75.90
67529;DHT22;54366;51.980;5.856;2022-09-23T06:39:18;12.20;75.90
67529;DHT22;54366;51.980;5.856;2022-09-23T06:41:44;12.20;76.00
67529;DHT22;54366;51.980;5.856;2022-09-23T06:44:12;12.20;75.70
67529;DHT22;54366;51.980;5.856;2022-09-23T06:46:39;12.30;75.50
67529;DHT22;54366;51.980;5.856;2022-09-23T06:49:05;12.30;75.40
67529;DHT22;54366;51.980;5.856;2022-09-23T06:51:31;12.40;75.10
67529;DHT22;54366;51.980;5.856;2022-09-23T06:53:57;12.40;75.60
67529;DHT22;54366;51.980;5.856;2022-09-23T06:56:24;12.40;74.80
67529;DHT22;54366;51.980;5.856;2022-09-23T06:58:51;12.40;74.60
67529;DHT22;54366;51.980;5.856;2022-09-23T07:01:17;12.50;74.60
67529;DHT22;54366;51.980;5.856;2022-09-23T07:03:45;12.50;74.40
67529;DHT22;54366;51.980;5.856;2022-09-23T07:06:13;12.50;74.50
67529;DHT22;54366;51.980;5.856;2022-09-23T07:08:42;12.50;74.50
67529;DHT22;54366;51.980;5.856;2022-09-23T07:11:09;12.60;74.30
67529;DHT22;54366;51.980;5.856;2022-09-23T07:13:38;12.60;74.10
67529;DHT22;54366;51.980;5.856;2022-09-23T07:16:06;12.60;73.70
67529;DHT22;54366;51.980;5.856;2022-09-23T07:18:34;12.60;73.60
67529;DHT22;54366;51.980;5.856;2022-09-23T07:21:12;12.70;73.50
67529;DHT22;54366;51.980;5.856;2022-09-23T07:23:41;12.70;73.30
67529;DHT22;54366;51.980;5.856;2022-09-23T07:26:07;12.80;73.20
67529;DHT22;54366;51.980;5.856;2022-09-23T07:28:34;12.70;73.30
67529;DHT22;54366;51.980;5.856;2022-09-23T07:31:07;12.70;73.40
67529;DHT22;54366;51.980;5.856;2022-09-23T07:33:38;12.80;73.30
67529;DHT22;54366;51.980;5.856;2022-09-23T07:36:11;12.80;73.20
67529;DHT22;54366;51.980;5.856;2022-09-23T07:38:38;12.80;73.00
67529;DHT22;54366;51.980;5.856;2022-09-23T07:41:07;12.90;73.00
67529;DHT22;54366;51.980;5.856;2022-09-23T07:43:36;12.90;72.80
67529;DHT22;54366;51.980;5.856;2022-09-23T07:46:08;12.90;72.60
67529;DHT22;54366;51.980;5.856;2022-09-23T07:48:36;13.00;72.50
67529;DHT22;54366;51.980;5.856;2022-09-23T07:51:24;13.00;72.30
67529;DHT22;54366;51.980;5.856;2022-09-23T07:53:52;13.10;72.30
67529;DHT22;54366;51.980;5.856;2022-09-23T07:56:20;13.10;71.80
67529;DHT22;54366;51.980;5.856;2022-09-23T07:58:49;13.10;71.70
67529;DHT22;54366;51.980;5.856;2022-09-23T08:01:29;13.20;71.80
67529;DHT22;54366;51.980;5.856;2022-09-23T08:03:57;13.30;71.60
67529;DHT22;54366;51.980;5.856;2022-09-23T08:06:24;13.30;71.20
67529;DHT22;54366;51.980;5.856;2022-09-23T08:08:50;13.40;71.10
67529;DHT22;54366;51.980;5.856;2022-09-23T08:11:17;13.40;70.70
67529;DHT22;54366;51.980;5.856;2022-09-23T08:13:43;13.50;70.80
67529;DHT22;54366;51.980;5.856;2022-09-23T08:16:09;13.60;70.70
67529;DHT22;54366;51.980;5.856;2022-09-23T08:18:36;13.60;70.90
67529;DHT22;54366;51.980;5.856;2022-09-23T08:21:02;13.70;70.80
67529;DHT22;54366;51.980;5.856;2022-09-23T08:23:29;13.70;70.60
67529;DHT22;54366;51.980;5.856;2022-09-23T08:26:00;13.80;70.20
67529;DHT22;54366;51.980;5.856;2022-09-23T08:28:27;13.80;70.30
67529;DHT22;54366;51.980;5.856;2022-09-23T08:30:54;13.90;70.00
67529;DHT22;54366;51.980;5.856;2022-09-23T08:33:20;13.90;70.70
67529;DHT22;54366;51.980;5.856;2022-09-23T08:35:46;14.00;70.20
67529;DHT22;54366;51.980;5.856;2022-09-23T08:38:12;14.10;70.20
67529;DHT22;54366;51.980;5.856;2022-09-23T08:40:42;14.10;70.20
67529;DHT22;54366;51.980;5.856;2022-09-23T08:43:22;14.20;70.30
67529;DHT22;54366;51.980;5.856;2022-09-23T08:45:50;14.20;69.60
67529;DHT22;54366;51.980;5.856;2022-09-23T08:48:29;14.20;69.80
67529;DHT22;54366;51.980;5.856;2022-09-23T08:51:02;14.30;69.80
67529;DHT22;54366;51.980;5.856;2022-09-23T08:53:34;14.30;69.40
67529;DHT22;54366;51.980;5.856;2022-09-23T08:56:09;14.40;69.20
67529;DHT22;54366;51.980;5.856;2022-09-23T09:01:52;14.50;69.30
67529;DHT22;54366;51.980;5.856;2022-09-23T09:09:53;14.70;68.70
67529;DHT22;54366;51.980;5.856;2022-09-23T09:12:43;14.80;68.80
67529;DHT22;54366;51.980;5.856;2022-09-23T09:15:21;14.90;68.80
67529;DHT22;54366;51.980;5.856;2022-09-23T09:20:23;15.10;67.70
67529;DHT22;54366;51.980;5.856;2022-09-23T09:28:23;15.40;67.30
67529;DHT22;54366;51.980;5.856;2022-09-23T09:30:59;15.50;67.00
67529;DHT22;54366;51.980;5.856;2022-09-23T09:33:43;15.60;67.40
67529;DHT22;54366;51.980;5.856;2022-09-23T09:36:19;15.70;66.90
67529;DHT22;54366;51.980;5.856;2022-09-23T09:38:49;15.80;66.20
67529;DHT22;54366;51.980;5.856;2022-09-23T09:41:18;15.80;66.30
67529;DHT22;54366;51.980;5.856;2022-09-23T09:43:46;15.90;66.40
67529;DHT22;54366;51.980;5.856;2022-09-23T09:49:28;16.10;65.90
67529;DHT22;54366;51.980;5.856;2022-09-23T09:52:22;16.20;66.10
67529;DHT22;54366;51.980;5.856;2022-09-23T09:54:49;16.20;64.60
67529;DHT22;54366;51.980;5.856;2022-09-23T09:57:36;16.20;64.90
67529;DHT22;54366;51.980;5.856;2022-09-23T10:02:52;16.40;65.00
67529;DHT22;54366;51.980;5.856;2022-09-23T10:08:32;16.50;65.30
67529;DHT22;54366;51.980;5.856;2022-09-23T10:11:04;16.70;64.90
67529;DHT22;54366;51.980;5.856;2022-09-23T10:13:30;16.80;63.90
67529;DHT22;54366;51.980;5.856;2022-09-23T10:15:59;16.90;64.30
67529;DHT22;54366;51.980;5.856;2022-09-23T10:21:06;17.10;63.00
67529;DHT22;54366;51.980;5.856;2022-09-23T10:23:39;17.20;62.30
67529;DHT22;54366;51.980;5.856;2022-09-23T10:26:06;17.30;62.60
67529;DHT22;54366;51.980;5.856;2022-09-23T10:28:46;17.40;62.30
67529;DHT22;54366;51.980;5.856;2022-09-23T10:31:14;17.50;62.30
67529;DHT22;54366;51.980;5.856;2022-09-23T10:33:49;17.50;61.90
67529;DHT22;54366;51.980;5.856;2022-09-23T10:36:17;17.60;61.80
67529;DHT22;54366;51.980;5.856;2022-09-23T10:38:44;17.60;61.10
67529;DHT22;54366;51.980;5.856;2022-09-23T10:41:38;17.70;60.60
67529;DHT22;54366;51.980;5.856;2022-09-23T10:44:57;17.80;60.80
67529;DHT22;54366;51.980;5.856;2022-09-23T10:47:55;18.00;60.80
67529;DHT22;54366;51.980;5.856;2022-09-23T10:53:33;18.20;59.60
67529;DHT22;54366;51.980;5.856;2022-09-23T11:21:27;18.20;58.60
67529;DHT22;54366;51.980;5.856;2022-09-23T11:24:40;18.20;58.40
67529;DHT22;54366;51.980;5.856;2022-09-23T11:27:41;18.20;59.00
67529;DHT22;54366;51.980;5.856;2022-09-23T11:30:09;18.20;59.30
67529;DHT22;54366;51.980;5.856;2022-09-23T11:35:25;18.20;59.00
67529;DHT22;54366;51.980;5.856;2022-09-23T11:40:31;18.20;59.10
67529;DHT22;54366;51.980;5.856;2022-09-23T11:43:20;18.20;59.30
67529;DHT22;54366;51.980;5.856;2022-09-23T11:46:03;18.30;59.20
67529;DHT22;54366;51.980;5.856;2022-09-23T11:48:44;18.30;59.50
67529;DHT22;54366;51.980;5.856;2022-09-23T11:54:04;18.30;59.20
67529;DHT22;54366;51.980;5.856;2022-09-23T11:56:39;18.30;59.60
67529;DHT22;54366;51.980;5.856;2022-09-23T12:02:03;18.40;60.10
67529;DHT22;54366;51.980;5.856;2022-09-23T12:04:38;18.40;59.70
67529;DHT22;54366;51.980;5.856;2022-09-23T12:07:13;18.40;58.90
67529;DHT22;54366;51.980;5.856;2022-09-23T12:09:57;18.40;59.10
67529;DHT22;54366;51.980;5.856;2022-09-23T12:13:06;18.50;59.40
67529;DHT22;54366;51.980;5.856;2022-09-23T12:18:23;18.60;59.50
67529;DHT22;54366;51.980;5.856;2022-09-23T12:26:20;18.70;58.00
67529;DHT22;54366;51.980;5.856;2022-09-23T12:28:50;18.80;58.00
67529;DHT22;54366;51.980;5.856;2022-09-23T12:31:20;18.90;58.00
67529;DHT22;54366;51.980;5.856;2022-09-23T12:33:57;18.90;57.60
67529;DHT22;54366;51.980;5.856;2022-09-23T12:36:32;19.00;57.60
67529;DHT22;54366;51.980;5.856;2022-09-23T12:39:06;19.10;57.70
67529;DHT22;54366;51.980;5.856;2022-09-23T12:41:55;19.20;57.30
67529;DHT22;54366;51.980;5.856;2022-09-23T12:44:38;19.30;57.00
67529;DHT22;54366;51.980;5.856;2022-09-23T12:49:51;19.30;56.30
67529;DHT22;54366;51.980;5.856;2022-09-23T12:54:48;19.40;56.20
67529;DHT22;54366;51.980;5.856;2022-09-23T13:03:00;19.40;56.30
67529;DHT22;54366;51.980;5.856;2022-09-23T13:06:01;19.50;56.40
67529;DHT22;54366;51.980;5.856;2022-09-23T13:08:51;19.50;56.50
67529;DHT22;54366;51.980;5.856;2022-09-23T13:11:28;19.50;56.40
67529;DHT22;54366;51.980;5.856;2022-09-23T13:13:59;19.50;55.10
67529;DHT22;54366;51.980;5.856;2022-09-23T13:16:56;19.50;55.90
67529;DHT22;54366;51.980;5.856;2022-09-23T13:27:23;19.50;55.70
67529;DHT22;54366;51.980;5.856;2022-09-23T13:30:05;19.50;55.80
67529;DHT22;54366;51.980;5.856;2022-09-23T13:33:10;19.50;56.30
67529;DHT22;54366;51.980;5.856;2022-09-23T13:35:45;19.50;55.40
67529;DHT22;54366;51.980;5.856;2022-09-23T13:38:24;19.50;55.90
67529;DHT22;54366;51.980;5.856;2022-09-23T13:41:03;19.60;56.20
67529;DHT22;54366;51.980;5.856;2022-09-23T13:43:38;19.60;55.20
67529;DHT22;54366;51.980;5.856;2022-09-23T13:46:10;19.50;55.10
67529;DHT22;54366;51.980;5.856;2022-09-23T13:48:38;19.50;55.40
67529;DHT22;54366;51.980;5.856;2022-09-23T13:51:09;19.50;55.40
67529;DHT22;54366;51.980;5.856;2022-09-23T13:53:36;19.60;55.60
67529;DHT22;54366;51.980;5.856;2022-09-23T13:56:12;19.60;55.60
67529;DHT22;54366;51.980;5.856;2022-09-23T13:58:39;19.50;55.90
67529;DHT22;54366;51.980;5.856;2022-09-23T14:01:24;19.60;56.20
67529;DHT22;54366;51.980;5.856;2022-09-23T14:03:54;19.60;56.00
67529;DHT22;54366;51.980;5.856;2022-09-23T14:06:20;19.70;56.00
67529;DHT22;54366;51.980;5.856;2022-09-23T14:08:48;19.70;56.00
67529;DHT22;54366;51.980;5.856;2022-09-23T14:11:20;19.70;55.80
67529;DHT22;54366;51.980;5.856;2022-09-23T14:13:49;19.70;55.40
67529;DHT22;54366;51.980;5.856;2022-09-23T14:16:20;19.70;55.50
67529;DHT22;54366;51.980;5.856;2022-09-23T14:18:49;19.70;55.70
67529;DHT22;54366;51.980;5.856;2022-09-23T14:21:37;19.70;55.40
67529;DHT22;54366;51.980;5.856;2022-09-23T14:24:28;19.70;56.00
67529;DHT22;54366;51.980;5.856;2022-09-23T14:27:16;19.70;55.10
67529;DHT22;54366;51.980;5.856;2022-09-23T14:29:45;19.70;55.60
67529;DHT22;54366;51.980;5.856;2022-09-23T14:32:21;19.70;55.40
67529;DHT22;54366;51.980;5.856;2022-09-23T14:35:13;19.70;54.80
67529;DHT22;54366;51.980;5.856;2022-09-23T14:37:42;19.70;55.20
67529;DHT22;54366;51.980;5.856;2022-09-23T14:40:36;19.70;55.70
67529;DHT22;54366;51.980;5.856;2022-09-23T14:43:16;19.70;55.90
67529;DHT22;54366;51.980;5.856;2022-09-23T14:45:46;19.60;56.20
67529;DHT22;54366;51.980;5.856;2022-09-23T14:48:32;19.70;56.30
67529;DHT22;54366;51.980;5.856;2022-09-23T14:51:03;19.60;56.10
67529;DHT22;54366;51.980;5.856;2022-09-23T14:58:55;19.60;56.20
67529;DHT22;54366;51.980;5.856;2022-09-23T15:06:36;19.50;56.10
67529;DHT22;54366;51.980;5.856;2022-09-23T15:09:04;19.50;56.20
67529;DHT22;54366;51.980;5.856;2022-09-23T15:11:30;19.50;56.30
67529;DHT22;54366;51.980;5.856;2022-09-23T15:14:00;19.60;56.50
67529;DHT22;54366;51.980;5.856;2022-09-23T15:16:28;19.50;56.40
67529;DHT22;54366;51.980;5.856;2022-09-23T15:18:57;19.50;56.40
67529;DHT22;54366;51.980;5.856;2022-09-23T15:21:28;19.50;56.50
67529;DHT22;54366;51.980;5.856;2022-09-23T15:23:57;19.50;56.40
67529;DHT22;54366;51.980;5.856;2022-09-23T15:26:39;19.50;56.40
67529;DHT22;54366;51.980;5.856;2022-09-23T15:29:08;19.40;56.40
67529;DHT22;54366;51.980;5.856;2022-09-23T15:31:34;19.40;56.30
67529;DHT22;54366;51.980;5.856;2022-09-23T15:34:02;19.40;56.40
67529;DHT22;54366;51.980;5.856;2022-09-23T15:36:30;19.40;56.40
67529;DHT22;54366;51.980;5.856;2022-09-23T15:39:05;19.30;56.50
67529;DHT22;54366;51.980;5.856;2022-09-23T15:41:32;19.30;56.50
67529;DHT22;54366;51.980;5.856;2022-09-23T15:44:06;19.30;56.60
67529;DHT22;54366;51.980;5.856;2022-09-23T15:46:36;19.30;56.60
67529;DHT22;54366;51.980;5.856;2022-09-23T15:49:19;19.30;56.60
67529;DHT22;54366;51.980;5.856;2022-09-23T15:51:48;19.30;56.70
67529;DHT22;54366;51.980;5.856;2022-09-23T15:54:17;19.20;56.50
67529;DHT22;54366;51.980;5.856;2022-09-23T15:56:44;19.20;56.80
67529;DHT22;54366;51.980;5.856;2022-09-23T15:59:10;19.10;57.50
67529;DHT22;54366;51.980;5.856;2022-09-23T16:01:37;19.10;56.90
67529;DHT22;54366;51.980;5.856;2022-09-23T16:04:04;19.10;57.10
67529;DHT22;54366;51.980;5.856;2022-09-23T16:06:31;19.10;57.30
67529;DHT22;54366;51.980;5.856;2022-09-23T16:08:57;19.10;57.30
67529;DHT22;54366;51.980;5.856;2022-09-23T16:11:28;19.00;57.30
67529;DHT22;54366;51.980;5.856;2022-09-23T16:13:59;19.00;57.40
67529;DHT22;54366;51.980;5.856;2022-09-23T16:16:26;19.00;57.60
67529;DHT22;54366;51.980;5.856;2022-09-23T16:18:55;19.00;57.70
67529;DHT22;54366;51.980;5.856;2022-09-23T16:21:25;19.00;57.80
67529;DHT22;54366;51.980;5.856;2022-09-23T16:23:52;19.00;57.90
67529;DHT22;54366;51.980;5.856;2022-09-23T16:26:33;18.90;57.80
67529;DHT22;54366;51.980;5.856;2022-09-23T16:29:00;18.90;57.80
67529;DHT22;54366;51.980;5.856;2022-09-23T16:31:27;18.90;58.10
67529;DHT22;54366;51.980;5.856;2022-09-23T16:33:57;18.80;58.10
67529;DHT22;54366;51.980;5.856;2022-09-23T16:36:33;18.80;58.20
67529;DHT22;54366;51.980;5.856;2022-09-23T16:39:02;18.70;58.40
67529;DHT22;54366;51.980;5.856;2022-09-23T16:41:29;18.70;58.60
67529;DHT22;54366;51.980;5.856;2022-09-23T16:43:59;18.70;58.70
67529;DHT22;54366;51.980;5.856;2022-09-23T16:46:27;18.70;59.20
67529;DHT22;54366;51.980;5.856;2022-09-23T16:48:54;18.60;59.80
67529;DHT22;54366;51.980;5.856;2022-09-23T16:51:27;18.50;60.60
67529;DHT22;54366;51.980;5.856;2022-09-23T16:53:55;18.50;61.30
67529;DHT22;54366;51.980;5.856;2022-09-23T16:56:24;18.40;61.70
67529;DHT22;54366;51.980;5.856;2022-09-23T16:58:52;18.40;62.10
67529;DHT22;54366;51.980;5.856;2022-09-23T17:01:21;18.30;62.40
67529;DHT22;54366;51.980;5.856;2022-09-23T17:04:06;18.20;63.10
67529;DHT22;54366;51.980;5.856;2022-09-23T17:06:33;18.20;63.60
67529;DHT22;54366;51.980;5.856;2022-09-23T17:09:00;18.20;64.00
67529;DHT22;54366;51.980;5.856;2022-09-23T17:11:27;18.10;64.50
67529;DHT22;54366;51.980;5.856;2022-09-23T17:13:54;18.00;64.60
67529;DHT22;54366;51.980;5.856;2022-09-23T17:16:26;18.00;65.20
67529;DHT22;54366;51.980;5.856;2022-09-23T17:18:53;17.90;66.20
67529;DHT22;54366;51.980;5.856;2022-09-23T17:21:24;17.90;66.90
67529;DHT22;54366;51.980;5.856;2022-09-23T17:23:55;17.90;67.70
67529;DHT22;54366;51.980;5.856;2022-09-23T17:26:22;17.80;68.30
67529;DHT22;54366;51.980;5.856;2022-09-23T17:28:50;17.70;68.00
67529;DHT22;54366;51.980;5.856;2022-09-23T17:31:17;17.70;68.50
67529;DHT22;54366;51.980;5.856;2022-09-23T17:33:43;17.60;68.80
67529;DHT22;54366;51.980;5.856;2022-09-23T17:36:12;17.50;69.20
67529;DHT22;54366;51.980;5.856;2022-09-23T17:38:38;17.50;69.80
67529;DHT22;54366;51.980;5.856;2022-09-23T17:41:07;17.40;70.30
67529;DHT22;54366;51.980;5.856;2022-09-23T17:43:34;17.40;70.50
67529;DHT22;54366;51.980;5.856;2022-09-23T17:46:12;17.40;70.90
67529;DHT22;54366;51.980;5.856;2022-09-23T17:48:40;17.30;71.50
67529;DHT22;54366;51.980;5.856;2022-09-23T17:51:09;17.30;71.60
67529;DHT22;54366;51.980;5.856;2022-09-23T17:53:37;17.20;71.80
67529;DHT22;54366;51.980;5.856;2022-09-23T17:56:10;17.20;72.20
67529;DHT22;54366;51.980;5.856;2022-09-23T17:58:37;17.20;72.70
67529;DHT22;54366;51.980;5.856;2022-09-23T18:01:11;17.20;72.90
67529;DHT22;54366;51.980;5.856;2022-09-23T18:03:38;17.10;73.10
67529;DHT22;54366;51.980;5.856;2022-09-23T18:06:19;17.10;73.40
67529;DHT22;54366;51.980;5.856;2022-09-23T18:08:47;17.10;73.60
67529;DHT22;54366;51.980;5.856;2022-09-23T18:11:25;17.10;73.70
67529;DHT22;54366;51.980;5.856;2022-09-23T18:13:52;17.10;74.10
67529;DHT22;54366;51.980;5.856;2022-09-23T18:16:20;17.00;73.90